Time;durP1;ratioP1;P1;durP2;ratioP2;P2;SDS_P1;SDS_P2;PMS_P1;PMS_P2;Temp;Humidity;BMP_temperature;BMP_pressure;BME280_temperature;BME280_humidity;BME280_pressure;Samples;Min_cycle;Max_cycle;Signal;HPM_P1;HPM_P2
2021/01/05 10:52:15;;;;;;;10.10;7.80;;;;;;;3.50;93.38;98569.56;5188382;27;20521;-80
2021/01/05 10:54:42;;;;;;;9.33;7.90;;;;;;;4.14;91.59;98572.22;5164382;27;39846;-80
2021/01/05 10:57:10;;;;;;;11.53;7.90;;;;;;;4.61;88.12;98568.47;5167262;27;41595;-81
2021/01/05 10:59:40;;;;;;;9.47;7.10;;;;;;;4.96;84.88;98559.03;5203094;22;44389;-79
2021/01/05 11:02:09;;;;;;;8.90;7.30;;;;;;;5.17;82.34;98572.13;5146155;27;42137;-81
2021/01/05 11:04:37;;;;;;;8.50;7.47;;;;;;;5.25;80.08;98565.59;5129358;27;38397;-82
2021/01/05 11:07:06;;;;;;;8.03;7.17;;;;;;;5.33;79.51;98566.09;5146181;27;42167;-81
2021/01/05 11:09:35;;;;;;;8.53;7.20;;;;;;;5.34;78.50;98559.06;5213149;22;43726;-79
2021/01/05 11:12:05;;;;;;;10.67;7.30;;;;;;;5.38;77.71;98572.00;5141758;27;42394;-81
2021/01/05 11:14:32;;;;;;;8.97;7.47;;;;;;;5.39;77.31;98572.84;5108812;27;39006;-81
2021/01/05 11:17:00;;;;;;;8.80;7.60;;;;;;;5.33;78.15;98552.13;5108408;27;41549;-81
2021/01/05 11:19:27;;;;;;;8.67;6.90;;;;;;;5.51;77.12;98572.28;5125170;27;43362;-82
2021/01/05 11:21:56;;;;;;;8.03;6.90;;;;;;;5.50;77.31;98567.09;5193704;22;41932;-82
2021/01/05 11:24:24;;;;;;;9.20;7.20;;;;;;;5.50;76.28;98569.72;5067394;28;40036;-81
2021/01/05 11:26:53;;;;;;;9.30;6.67;;;;;;;5.51;76.13;98574.06;5084861;28;41765;-82
2021/01/05 11:29:21;;;;;;;8.53;7.03;;;;;;;5.45;75.59;98566.44;5083725;28;42192;-84
2021/01/05 11:31:53;;;;;;;10.67;7.47;;;;;;;5.49;75.56;98574.13;5067148;28;41498;-84
2021/01/05 11:34:20;;;;;;;7.93;6.37;;;;;;;5.61;75.77;98572.69;5151469;22;38808;-83
2021/01/05 11:36:48;;;;;;;9.00;7.60;;;;;;;5.59;75.46;98569.28;5063242;28;42537;-82
2021/01/05 11:39:15;;;;;;;8.17;7.17;;;;;;;5.63;75.50;98560.34;5064390;28;42654;-82
2021/01/05 11:41:45;;;;;;;8.60;7.63;;;;;;;5.75;75.66;98559.78;5063183;28;41858;-84
2021/01/05 11:44:14;;;;;;;8.77;7.27;;;;;;;5.85;75.75;98555.78;5153007;22;41873;-79
2021/01/05 11:46:41;;;;;;;8.87;7.57;;;;;;;5.89;75.23;98557.38;5108578;27;39676;-85
2021/01/05 11:49:09;;;;;;;8.40;6.93;;;;;;;5.96;75.61;98558.75;5125104;27;42804;-85
2021/01/05 11:51:37;;;;;;;10.10;7.67;;;;;;;5.88;74.86;98545.16;5124476;27;41316;-80
2021/01/05 11:54:05;;;;;;;12.83;10.47;;;;;;;5.82;74.26;98548.03;5124921;27;39816;-81
2021/01/05 11:56:35;;;;;;;9.37;8.10;;;;;;;5.83;74.68;98552.34;5197709;22;41796;-80
2021/01/05 11:59:02;;;;;;;9.67;7.80;;;;;;;5.70;74.40;98535.47;5067480;28;43210;-80
2021/01/05 12:01:35;;;;;;;9.20;7.40;;;;;;;5.81;74.53;98553.38;5081811;28;42875;-81
2021/01/05 12:04:03;;;;;;;8.27;6.83;;;;;;;5.83;74.02;98546.25;5044664;28;38991;-82
2021/01/05 12:06:30;;;;;;;8.30;7.40;;;;;;;5.75;73.29;98549.25;5047112;28;42081;-81
2021/01/05 12:08:58;;;;;;;7.77;6.97;;;;;;;5.69;73.35;98541.66;5161841;22;42644;-80
2021/01/05 12:11:28;;;;;;;8.70;7.37;;;;;;;5.67;73.12;98546.16;5047793;28;41303;-80
2021/01/05 12:13:55;;;;;;;9.23;7.13;;;;;;;5.72;73.63;98533.63;5051071;28;41301;-87
2021/01/05 12:16:28;;;;;;;8.23;6.83;;;;;;;5.56;73.03;98509.03;5063597;28;41746;-87
2021/01/05 12:19:19;;;;;;;8.50;6.50;;;;;;;5.78;72.96;98535.97;5129807;22;42583;31
2021/01/05 12:21:46;;;;;;;7.40;6.47;;;;;;;5.78;72.62;98528.09;5026171;28;42434;-82
2021/01/05 12:24:15;;;;;;;8.83;6.87;;;;;;;5.77;72.45;98526.41;5011341;28;39711;-85
2021/01/05 12:26:44;;;;;;;8.90;7.47;;;;;;;5.74;72.54;98531.78;5059917;28;41173;-85
2021/01/05 12:29:15;;;;;;;9.00;7.10;;;;;;;5.75;73.14;98522.97;5010994;28;43114;-85
2021/01/05 12:34:33;;;;;;;9.47;7.93;;;;;;;5.68;73.40;98511.09;5050196;28;40681;-84
2021/01/05 12:37:04;;;;;;;8.17;6.77;;;;;;;5.69;73.71;98507.50;5035763;28;42461;-84
2021/01/05 12:39:32;;;;;;;9.37;8.23;;;;;;;5.68;73.61;98495.31;5036368;28;42631;-83
2021/01/05 12:42:00;;;;;;;9.20;7.23;;;;;;;5.82;73.04;98521.75;5052395;28;42248;-88
2021/01/05 12:44:29;;;;;;;9.00;7.80;;;;;;;5.76;73.23;98522.91;5160295;22;39136;-85
2021/01/05 12:46:57;;;;;;;9.80;7.73;;;;;;;5.75;73.47;98515.97;5073946;28;41592;-81
2021/01/05 12:49:24;;;;;;;8.17;7.27;;;;;;;5.80;73.11;98521.00;5077863;28;41862;-83
2021/01/05 12:51:53;;;;;;;10.00;7.63;;;;;;;5.68;73.54;98495.31;5089699;28;41831;-83
2021/01/05 12:56:55;;;;;;;10.43;7.53;;;;;;;5.79;73.55;98519.28;5029773;28;42662;-83
2021/01/05 12:59:23;;;;;;;8.93;6.73;;;;;;;5.75;73.64;98501.97;5031956;28;41951;-82
2021/01/05 13:01:54;;;;;;;8.03;7.07;;;;;;;5.87;73.50;98532.91;5048606;28;42706;-82
2021/01/05 13:04:21;;;;;;;10.47;7.70;;;;;;;5.71;73.57;98516.16;5049449;28;39784;-82
2021/01/05 13:06:48;;;;;;;9.17;8.07;;;;;;;5.66;73.16;98512.94;5172192;22;40672;-82
2021/01/05 13:09:16;;;;;;;8.90;7.60;;;;;;;5.66;73.46;98518.19;5072222;28;41751;-83
2021/01/05 13:11:45;;;;;;;10.40;8.53;;;;;;;5.74;73.82;98522.13;5086516;28;41996;-82
2021/01/05 13:14:13;;;;;;;13.43;10.90;;;;;;;5.78;73.71;98518.44;5102783;28;38919;-84
2021/01/05 13:16:41;;;;;;;24.17;14.60;;;;;;;5.77;74.07;98531.66;5104154;28;40905;-83
2021/01/05 13:19:12;;;;;;;18.60;12.83;;;;;;;5.76;73.98;98529.94;5181494;22;41826;-84
2021/01/05 13:21:44;;;;;;;14.87;11.40;;;;;;;5.75;74.16;98525.63;5064662;28;41155;-84
2021/01/05 13:24:13;;;;;;;10.93;9.43;;;;;;;5.63;73.82;98507.81;5074047;28;38690;-83
2021/01/05 13:26:43;;;;;;;9.57;8.33;;;;;;;5.80;74.11;98520.16;5093242;28;41855;-84
2021/01/05 13:32:01;;;;;;;9.50;8.30;;;;;;;5.74;74.28;98521.28;5116606;27;20238;-83
2021/01/05 13:34:31;;;;;;;11.10;9.07;;;;;;;5.71;73.69;98518.78;5057686;28;38846;-82
2021/01/05 13:37:00;;;;;;;11.30;8.90;;;;;;;5.68;73.67;98514.56;5066988;28;40781;-83
2021/01/05 13:39:29;;;;;;;9.43;8.07;;;;;;;5.83;73.97;98530.47;5074678;28;42538;-83
2021/01/05 13:42:01;;;;;;;9.27;7.90;;;;;;;5.81;73.92;98522.69;5158478;22;41083;-82
2021/01/05 13:44:28;;;;;;;9.10;7.93;;;;;;;5.83;74.05;98512.94;5088356;28;40825;-82
2021/01/05 13:46:56;;;;;;;9.20;7.90;;;;;;;5.93;73.63;98518.66;5062683;28;41590;-85
2021/01/05 13:49:25;;;;;;;9.30;8.27;;;;;;;5.97;73.21;98525.44;5061806;28;41719;-84
2021/01/05 13:51:52;;;;;;;9.97;7.87;;;;;;;6.03;73.01;98544.41;5054950;28;41576;-84
2021/01/05 13:54:26;;;;;;;10.33;8.50;;;;;;;6.00;72.86;98544.56;5191111;22;40366;-83
2021/01/05 13:56:54;;;;;;;9.97;8.97;;;;;;;5.91;72.83;98520.50;5094912;27;40870;-84
2021/01/05 13:59:22;;;;;;;12.07;9.20;;;;;;;6.04;72.78;98540.84;5085193;27;43420;-84
2021/01/05 14:01:54;;;;;;;11.70;9.23;;;;;;;6.07;72.86;98543.31;5118013;27;41971;-85
2021/01/05 14:04:23;;;;;;;11.45;9.80;;;;;;;6.12;72.89;98543.94;5187091;22;40051;31
2021/01/05 14:06:55;;;;;;;9.63;8.23;;;;;;;6.14;73.26;98530.72;5032518;28;41422;-86
2021/01/05 14:09:22;;;;;;;11.13;9.27;;;;;;;6.19;73.08;98533.97;5043912;28;42754;-83
2021/01/05 14:11:51;;;;;;;9.50;8.33;;;;;;;6.26;72.43;98545.03;5033409;28;42230;-84
2021/01/05 14:14:18;;;;;;;9.90;8.73;;;;;;;6.23;72.23;98539.94;5015934;28;41448;-86
2021/01/05 14:16:49;;;;;;;11.47;8.97;;;;;;;6.16;72.17;98535.91;5134214;22;40960;-85
2021/01/05 14:19:17;;;;;;;9.87;8.23;;;;;;;6.21;72.68;98539.16;5044100;28;43309;-85
2021/01/05 14:21:44;;;;;;;9.53;8.00;;;;;;;6.26;72.48;98550.31;5034928;28;41298;-83
2021/01/05 14:24:17;;;;;;;10.40;8.53;;;;;;;6.13;72.29;98535.13;5031292;28;38930;-84
2021/01/05 14:26:45;;;;;;;10.00;7.87;;;;;;;6.13;72.27;98552.69;5030438;28;40883;-82
2021/01/05 14:29:13;;;;;;;8.67;7.47;;;;;;;6.04;72.29;98551.38;5188247;22;43800;-81
2021/01/05 14:31:40;;;;;;;9.00;7.07;;;;;;;6.01;72.46;98551.50;5128634;27;42061;-82
2021/01/05 14:34:08;;;;;;;7.60;6.80;;;;;;;6.01;72.77;98554.16;5111666;27;38935;-82
2021/01/05 14:36:36;;;;;;;9.67;8.23;;;;;;;5.88;73.26;98550.41;5128614;27;40822;-84
2021/01/05 14:41:49;;;;;;;11.57;8.70;;;;;;;5.56;74.26;98535.31;5064632;28;20238;-84
2021/01/05 14:44:24;;;;;;;11.17;9.30;;;;;;;5.51;74.86;98551.28;5049598;28;40283;-83
2021/01/05 14:46:56;;;;;;;11.47;8.80;;;;;;;5.36;75.48;98551.97;5068316;28;41248;-82
2021/01/05 14:49:27;;;;;;;9.20;8.00;;;;;;;5.21;75.93;98557.94;5066715;28;42187;-82
2021/01/05 14:51:57;;;;;;;11.43;9.20;;;;;;;4.97;76.30;98552.03;5162716;22;42669;-82
2021/01/05 14:54:24;;;;;;;12.60;10.50;;;;;;;4.79;76.78;98571.22;5066598;28;40366;-81
